sensor_id;sensor_type;location;lat;lon;timestamp;pressure;altitude;pressure_sealevel;temperature;humidity
79048;BME280;68680;50.764;6.120;2024-03-02T00:01:17;97814.22;;;8.99;70.75
79048;BME280;68680;50.764;6.120;2024-03-02T00:03:43;97812.91;;;8.70;70.81
79048;BME280;68680;50.764;6.120;2024-03-02T00:06:08;97815.41;;;8.82;70.54
79048;BME280;68680;50.764;6.120;2024-03-02T00:08:35;97806.72;;;8.91;70.27
79048;BME280;68680;50.764;6.120;2024-03-02T00:11:01;97802.19;;;8.92;70.78
79048;BME280;68680;50.764;6.120;2024-03-02T00:13:29;97809.59;;;8.85;70.45
79048;BME280;68680;50.764;6.120;2024-03-02T00:15:56;97824.00;;;8.89;70.83
79048;BME280;68680;50.764;6.120;2024-03-02T00:18:26;97813.41;;;8.94;70.63
79048;BME280;68680;50.764;6.120;2024-03-02T00:20:56;97807.84;;;8.95;70.18
79048;BME280;68680;50.764;6.120;2024-03-02T00:23:23;97818.72;;;8.94;71.11
79048;BME280;68680;50.764;6.120;2024-03-02T00:25:51;97814.53;;;9.03;69.90
79048;BME280;68680;50.764;6.120;2024-03-02T00:28:20;97812.66;;;9.03;70.03
79048;BME280;68680;50.764;6.120;2024-03-02T00:30:58;97813.22;;;9.05;70.57
79048;BME280;68680;50.764;6.120;2024-03-02T00:33:30;97829.91;;;8.96;70.19
79048;BME280;68680;50.764;6.120;2024-03-02T00:35:55;97834.09;;;8.92;70.26
79048;BME280;68680;50.764;6.120;2024-03-02T00:38:22;97840.63;;;9.06;69.96
79048;BME280;68680;50.764;6.120;2024-03-02T00:40:48;97834.25;;;9.07;69.85
79048;BME280;68680;50.764;6.120;2024-03-02T00:43:41;97825.69;;;9.00;69.82
79048;BME280;68680;50.764;6.120;2024-03-02T00:46:11;97817.81;;;9.15;70.52
79048;BME280;68680;50.764;6.120;2024-03-02T00:48:36;97821.00;;;9.12;69.93
79048;BME280;68680;50.764;6.120;2024-03-02T00:51:03;97818.81;;;9.09;70.45
79048;BME280;68680;50.764;6.120;2024-03-02T00:53:31;97814.03;;;9.06;70.01
79048;BME280;68680;50.764;6.120;2024-03-02T00:55:57;97808.66;;;9.01;70.45
79048;BME280;68680;50.764;6.120;2024-03-02T00:58:22;97815.34;;;9.08;70.78
79048;BME280;68680;50.764;6.120;2024-03-02T01:00:48;97815.91;;;9.11;70.03
79048;BME280;68680;50.764;6.120;2024-03-02T01:03:16;97827.56;;;9.04;70.01
79048;BME280;68680;50.764;6.120;2024-03-02T01:05:42;97839.25;;;9.03;69.27
79048;BME280;68680;50.764;6.120;2024-03-02T01:08:09;97837.44;;;9.09;69.87
79048;BME280;68680;50.764;6.120;2024-03-02T01:10:34;97836.97;;;9.17;69.00
79048;BME280;68680;50.764;6.120;2024-03-02T01:13:00;97843.09;;;9.18;69.38
79048;BME280;68680;50.764;6.120;2024-03-02T01:15:26;97858.19;;;9.07;70.13
79048;BME280;68680;50.764;6.120;2024-03-02T01:17:52;97846.53;;;9.13;69.64
79048;BME280;68680;50.764;6.120;2024-03-02T01:20:19;97845.06;;;9.32;69.07
79048;BME280;68680;50.764;6.120;2024-03-02T01:22:45;97855.47;;;9.02;70.34
79048;BME280;68680;50.764;6.120;2024-03-02T01:25:10;97854.03;;;9.21;68.95
79048;BME280;68680;50.764;6.120;2024-03-02T01:27:36;97848.81;;;9.31;69.46
79048;BME280;68680;50.764;6.120;2024-03-02T01:30:02;97866.19;;;9.12;69.32
79048;BME280;68680;50.764;6.120;2024-03-02T01:32:28;97852.81;;;9.02;69.58
79048;BME280;68680;50.764;6.120;2024-03-02T01:34:54;97865.88;;;9.08;70.20
79048;BME280;68680;50.764;6.120;2024-03-02T01:37:21;97858.47;;;9.11;70.84
79048;BME280;68680;50.764;6.120;2024-03-02T01:39:46;97861.91;;;9.06;69.94
79048;BME280;68680;50.764;6.120;2024-03-02T01:42:12;97869.03;;;9.00;71.44
79048;BME280;68680;50.764;6.120;2024-03-02T01:44:39;97862.47;;;9.08;71.13
79048;BME280;68680;50.764;6.120;2024-03-02T01:47:05;97873.78;;;8.98;71.93
79048;BME280;68680;50.764;6.120;2024-03-02T01:49:31;97867.28;;;8.84;72.26
79048;BME280;68680;50.764;6.120;2024-03-02T01:51:57;97870.22;;;8.88;71.74
79048;BME280;68680;50.764;6.120;2024-03-02T01:54:24;97861.69;;;8.86;72.33
79048;BME280;68680;50.764;6.120;2024-03-02T01:56:50;97864.09;;;8.87;72.15
79048;BME280;68680;50.764;6.120;2024-03-02T01:59:15;97876.16;;;8.95;72.33
79048;BME280;68680;50.764;6.120;2024-03-02T02:01:41;97887.47;;;8.85;75.47
79048;BME280;68680;50.764;6.120;2024-03-02T02:04:07;97885.31;;;8.55;79.62
79048;BME280;68680;50.764;6.120;2024-03-02T02:06:33;97884.19;;;8.30;81.64
79048;BME280;68680;50.764;6.120;2024-03-02T02:08:59;97884.50;;;8.11;84.69
79048;BME280;68680;50.764;6.120;2024-03-02T02:11:26;97885.34;;;7.95;84.85
79048;BME280;68680;50.764;6.120;2024-03-02T02:13:52;97879.53;;;7.98;85.73
79048;BME280;68680;50.764;6.120;2024-03-02T02:16:18;97872.53;;;8.09;86.70
79048;BME280;68680;50.764;6.120;2024-03-02T02:18:43;97865.97;;;7.95;89.03
79048;BME280;68680;50.764;6.120;2024-03-02T02:21:09;97884.28;;;7.74;89.53
79048;BME280;68680;50.764;6.120;2024-03-02T02:23:36;97894.63;;;7.76;91.20
79048;BME280;68680;50.764;6.120;2024-03-02T02:26:02;97899.38;;;7.57;91.44
79048;BME280;68680;50.764;6.120;2024-03-02T02:28:28;97888.78;;;7.57;91.36
79048;BME280;68680;50.764;6.120;2024-03-02T02:30:55;97885.81;;;7.54;91.62
79048;BME280;68680;50.764;6.120;2024-03-02T02:33:21;97880.66;;;7.47;92.42
79048;BME280;68680;50.764;6.120;2024-03-02T02:35:46;97890.16;;;7.43;94.58
79048;BME280;68680;50.764;6.120;2024-03-02T02:38:12;97892.75;;;7.38;94.91
79048;BME280;68680;50.764;6.120;2024-03-02T02:40:39;97907.50;;;7.34;95.53
79048;BME280;68680;50.764;6.120;2024-03-02T02:43:05;97895.94;;;7.40;96.42
79048;BME280;68680;50.764;6.120;2024-03-02T02:45:31;97890.00;;;7.33;97.26
79048;BME280;68680;50.764;6.120;2024-03-02T02:47:57;97885.31;;;7.40;97.18
79048;BME280;68680;50.764;6.120;2024-03-02T02:50:22;97882.06;;;7.33;97.72
79048;BME280;68680;50.764;6.120;2024-03-02T02:52:48;97879.56;;;7.43;97.74
79048;BME280;68680;50.764;6.120;2024-03-02T02:55:14;97886.44;;;7.11;99.48
79048;BME280;68680;50.764;6.120;2024-03-02T02:57:42;97881.25;;;7.16;100.00
79048;BME280;68680;50.764;6.120;2024-03-02T03:00:09;97888.53;;;7.09;100.00
79048;BME280;68680;50.764;6.120;2024-03-02T03:02:37;97881.06;;;7.06;100.00
79048;BME280;68680;50.764;6.120;2024-03-02T03:05:04;97888.69;;;7.02;100.00
79048;BME280;68680;50.764;6.120;2024-03-02T03:07:30;97885.47;;;7.00;100.00
79048;BME280;68680;50.764;6.120;2024-03-02T03:09:56;97884.84;;;7.10;100.00
79048;BME280;68680;50.764;6.120;2024-03-02T03:12:21;97875.06;;;7.10;100.00
79048;BME280;68680;50.764;6.120;2024-03-02T03:14:48;97879.28;;;7.11;100.00
79048;BME280;68680;50.764;6.120;2024-03-02T03:17:14;97859.94;;;7.11;100.00
79048;BME280;68680;50.764;6.120;2024-03-02T03:19:40;97862.91;;;7.14;100.00
79048;BME280;68680;50.764;6.120;2024-03-02T03:22:06;97857.78;;;7.08;100.00
79048;BME280;68680;50.764;6.120;2024-03-02T03:24:31;97850.31;;;7.05;100.00
79048;BME280;68680;50.764;6.120;2024-03-02T03:26:57;97852.84;;;6.99;100.00
79048;BME280;68680;50.764;6.120;2024-03-02T03:29:23;97849.16;;;7.00;100.00
79048;BME280;68680;50.764;6.120;2024-03-02T03:31:50;97854.97;;;6.97;100.00
79048;BME280;68680;50.764;6.120;2024-03-02T03:34:16;97850.63;;;6.91;100.00
79048;BME280;68680;50.764;6.120;2024-03-02T03:36:41;97847.25;;;6.96;100.00
79048;BME280;68680;50.764;6.120;2024-03-02T03:39:07;97852.69;;;6.89;100.00
79048;BME280;68680;50.764;6.120;2024-03-02T03:41:33;97849.00;;;6.90;100.00
79048;BME280;68680;50.764;6.120;2024-03-02T03:43:59;97853.72;;;6.88;100.00
79048;BME280;68680;50.764;6.120;2024-03-02T03:46:25;97852.22;;;6.92;100.00
79048;BME280;68680;50.764;6.120;2024-03-02T03:48:52;97846.03;;;6.87;100.00
79048;BME280;68680;50.764;6.120;2024-03-02T03:51:17;97849.16;;;6.84;100.00
79048;BME280;68680;50.764;6.120;2024-03-02T03:53:43;97858.63;;;6.80;100.00
79048;BME280;68680;50.764;6.120;2024-03-02T03:56:09;97862.63;;;6.82;100.00
79048;BME280;68680;50.764;6.120;2024-03-02T03:58:35;97849.72;;;6.86;100.00
79048;BME280;68680;50.764;6.120;2024-03-02T04:01:00;97840.03;;;6.91;100.00
79048;BME280;68680;50.764;6.120;2024-03-02T04:03:26;97854.06;;;6.92;100.00
79048;BME280;68680;50.764;6.120;2024-03-02T04:05:53;97849.31;;;6.94;100.00
79048;BME280;68680;50.764;6.120;2024-03-02T04:08:19;97855.03;;;6.86;100.00
79048;BME280;68680;50.764;6.120;2024-03-02T04:10:45;97850.94;;;6.95;100.00
79048;BME280;68680;50.764;6.120;2024-03-02T04:13:10;97851.66;;;6.90;100.00
79048;BME280;68680;50.764;6.120;2024-03-02T04:15:36;97842.38;;;6.76;100.00
79048;BME280;68680;50.764;6.120;2024-03-02T04:18:02;97852.47;;;6.91;100.00
79048;BME280;68680;50.764;6.120;2024-03-02T04:20:28;97846.81;;;6.87;100.00
79048;BME280;68680;50.764;6.120;2024-03-02T04:22:55;97848.84;;;6.80;100.00
79048;BME280;68680;50.764;6.120;2024-03-02T04:25:21;97855.69;;;6.93;100.00
79048;BME280;68680;50.764;6.120;2024-03-02T04:27:46;97861.63;;;7.00;99.62
79048;BME280;68680;50.764;6.120;2024-03-02T04:30:13;97864.13;;;7.07;100.00
79048;BME280;68680;50.764;6.120;2024-03-02T04:32:38;97859.47;;;6.97;100.00
79048;BME280;68680;50.764;6.120;2024-03-02T04:35:06;97858.66;;;6.96;98.47
79048;BME280;68680;50.764;6.120;2024-03-02T04:37:34;97864.13;;;7.07;97.36
79048;BME280;68680;50.764;6.120;2024-03-02T04:40:01;97865.06;;;7.17;98.67
79048;BME280;68680;50.764;6.120;2024-03-02T04:42:27;97863.00;;;7.19;98.99
79048;BME280;68680;50.764;6.120;2024-03-02T04:44:52;97867.03;;;7.22;98.28
79048;BME280;68680;50.764;6.120;2024-03-02T04:47:18;97879.13;;;7.18;97.97
79048;BME280;68680;50.764;6.120;2024-03-02T04:49:44;97871.69;;;7.15;97.41
79048;BME280;68680;50.764;6.120;2024-03-02T04:52:10;97873.53;;;7.14;96.10
79048;BME280;68680;50.764;6.120;2024-03-02T04:54:35;97870.06;;;7.14;94.75
79048;BME280;68680;50.764;6.120;2024-03-02T04:57:03;97872.78;;;7.19;94.00
79048;BME280;68680;50.764;6.120;2024-03-02T04:59:29;97856.31;;;7.17;92.63
79048;BME280;68680;50.764;6.120;2024-03-02T05:01:55;97868.16;;;7.26;91.85
79048;BME280;68680;50.764;6.120;2024-03-02T05:04:20;97882.44;;;7.25;92.38
79048;BME280;68680;50.764;6.120;2024-03-02T05:06:46;97874.34;;;7.31;91.98
79048;BME280;68680;50.764;6.120;2024-03-02T05:09:12;97882.44;;;7.25;92.84
79048;BME280;68680;50.764;6.120;2024-03-02T05:11:38;97877.94;;;7.25;93.62
79048;BME280;68680;50.764;6.120;2024-03-02T05:14:05;97895.03;;;7.18;91.19
79048;BME280;68680;50.764;6.120;2024-03-02T05:16:33;97885.47;;;7.17;92.59
79048;BME280;68680;50.764;6.120;2024-03-02T05:18:59;97886.94;;;7.24;92.73
79048;BME280;68680;50.764;6.120;2024-03-02T05:21:24;97887.59;;;7.31;91.63
79048;BME280;68680;50.764;6.120;2024-03-02T05:23:50;97876.09;;;7.26;92.19
79048;BME280;68680;50.764;6.120;2024-03-02T05:26:16;97878.81;;;6.97;90.52
79048;BME280;68680;50.764;6.120;2024-03-02T05:28:42;97893.44;;;7.17;90.83
79048;BME280;68680;50.764;6.120;2024-03-02T05:31:10;97880.59;;;7.25;90.53
79048;BME280;68680;50.764;6.120;2024-03-02T05:33:37;97893.13;;;7.30;91.30
79048;BME280;68680;50.764;6.120;2024-03-02T05:36:04;97909.09;;;7.18;91.66
79048;BME280;68680;50.764;6.120;2024-03-02T05:38:30;97895.47;;;7.26;90.83
79048;BME280;68680;50.764;6.120;2024-03-02T05:40:55;97898.44;;;7.30;90.93
79048;BME280;68680;50.764;6.120;2024-03-02T05:43:21;97905.56;;;7.29;90.56
79048;BME280;68680;50.764;6.120;2024-03-02T05:45:47;97916.91;;;7.25;89.75
79048;BME280;68680;50.764;6.120;2024-03-02T05:48:14;97912.19;;;7.27;90.14
79048;BME280;68680;50.764;6.120;2024-03-02T05:50:40;97911.44;;;7.15;90.71
79048;BME280;68680;50.764;6.120;2024-03-02T05:53:06;97899.47;;;7.12;91.14
79048;BME280;68680;50.764;6.120;2024-03-02T05:55:32;97899.53;;;7.17;89.43
79048;BME280;68680;50.764;6.120;2024-03-02T05:57:57;97899.97;;;7.26;89.68
79048;BME280;68680;50.764;6.120;2024-03-02T06:00:23;97897.69;;;7.18;90.28
79048;BME280;68680;50.764;6.120;2024-03-02T06:02:49;97906.53;;;7.07;90.20
79048;BME280;68680;50.764;6.120;2024-03-02T06:05:16;97906.81;;;7.22;89.49
79048;BME280;68680;50.764;6.120;2024-03-02T06:07:43;97903.19;;;7.28;90.18
79048;BME280;68680;50.764;6.120;2024-03-02T06:10:09;97905.44;;;7.36;89.06
79048;BME280;68680;50.764;6.120;2024-03-02T06:12:35;97903.97;;;7.28;89.32
79048;BME280;68680;50.764;6.120;2024-03-02T06:15:00;97911.22;;;7.33;88.76
79048;BME280;68680;50.764;6.120;2024-03-02T06:17:26;97918.91;;;7.18;88.28
79048;BME280;68680;50.764;6.120;2024-03-02T06:19:52;97920.38;;;7.25;88.23
79048;BME280;68680;50.764;6.120;2024-03-02T06:22:19;97920.44;;;7.30;88.05
79048;BME280;68680;50.764;6.120;2024-03-02T06:24:45;97918.53;;;7.26;88.45
79048;BME280;68680;50.764;6.120;2024-03-02T06:27:10;97917.94;;;7.24;89.42
79048;BME280;68680;50.764;6.120;2024-03-02T06:29:36;97919.47;;;7.20;89.81
79048;BME280;68680;50.764;6.120;2024-03-02T06:32:02;97923.03;;;7.25;89.11
79048;BME280;68680;50.764;6.120;2024-03-02T06:34:28;97924.56;;;7.21;89.09
79048;BME280;68680;50.764;6.120;2024-03-02T06:36:54;97936.28;;;7.25;88.24
79048;BME280;68680;50.764;6.120;2024-03-02T06:39:21;97936.34;;;7.14;88.76
79048;BME280;68680;50.764;6.120;2024-03-02T06:41:47;97939.75;;;7.26;87.98
79048;BME280;68680;50.764;6.120;2024-03-02T06:44:12;97940.84;;;7.13;87.71
79048;BME280;68680;50.764;6.120;2024-03-02T06:46:43;97942.22;;;7.16;87.60
79048;BME280;68680;50.764;6.120;2024-03-02T06:49:09;97946.56;;;7.22;87.44
79048;BME280;68680;50.764;6.120;2024-03-02T06:51:35;97945.34;;;7.29;87.67
79048;BME280;68680;50.764;6.120;2024-03-02T06:54:00;97937.75;;;7.33;87.49
79048;BME280;68680;50.764;6.120;2024-03-02T06:56:27;97928.91;;;7.27;87.03
79048;BME280;68680;50.764;6.120;2024-03-02T06:58:53;97940.78;;;7.25;87.61
79048;BME280;68680;50.764;6.120;2024-03-02T07:01:19;97946.00;;;7.20;87.44
79048;BME280;68680;50.764;6.120;2024-03-02T07:03:45;97955.00;;;7.19;86.81
79048;BME280;68680;50.764;6.120;2024-03-02T07:06:10;97960.44;;;7.12;87.18
79048;BME280;68680;50.764;6.120;2024-03-02T07:08:36;97961.88;;;7.03;86.81
79048;BME280;68680;50.764;6.120;2024-03-02T07:11:02;97969.69;;;7.10;86.88
79048;BME280;68680;50.764;6.120;2024-03-02T07:13:30;97963.06;;;6.95;86.91
79048;BME280;68680;50.764;6.120;2024-03-02T07:15:55;97975.03;;;6.98;88.53
79048;BME280;68680;50.764;6.120;2024-03-02T07:18:21;97971.50;;;6.92;87.50
79048;BME280;68680;50.764;6.120;2024-03-02T07:20:47;97976.31;;;6.95;88.19
79048;BME280;68680;50.764;6.120;2024-03-02T07:23:12;97975.53;;;7.12;86.87
79048;BME280;68680;50.764;6.120;2024-03-02T07:25:39;97969.19;;;7.13;87.88
79048;BME280;68680;50.764;6.120;2024-03-02T07:28:05;97973.91;;;7.11;87.06
79048;BME280;68680;50.764;6.120;2024-03-02T07:30:32;97978.69;;;7.09;87.28
79048;BME280;68680;50.764;6.120;2024-03-02T07:32:58;97976.91;;;7.14;86.17
79048;BME280;68680;50.764;6.120;2024-03-02T07:35:24;97974.19;;;7.09;86.58
79048;BME280;68680;50.764;6.120;2024-03-02T07:37:50;97977.72;;;7.15;86.38
79048;BME280;68680;50.764;6.120;2024-03-02T07:40:16;97974.28;;;7.14;87.32
79048;BME280;68680;50.764;6.120;2024-03-02T07:42:42;97972.13;;;7.28;85.08
79048;BME280;68680;50.764;6.120;2024-03-02T07:45:08;97970.84;;;7.30;84.91
79048;BME280;68680;50.764;6.120;2024-03-02T07:47:35;97976.22;;;7.35;84.84
79048;BME280;68680;50.764;6.120;2024-03-02T07:50:01;97986.75;;;7.47;84.97
79048;BME280;68680;50.764;6.120;2024-03-02T07:52:27;97972.31;;;7.55;84.10
79048;BME280;68680;50.764;6.120;2024-03-02T07:54:53;97970.84;;;7.64;84.34
79048;BME280;68680;50.764;6.120;2024-03-02T07:57:19;97963.97;;;7.79;84.24
79048;BME280;68680;50.764;6.120;2024-03-02T07:59:45;97972.97;;;7.78;81.87
79048;BME280;68680;50.764;6.120;2024-03-02T08:02:11;97966.25;;;7.93;81.91
79048;BME280;68680;50.764;6.120;2024-03-02T08:04:38;97982.75;;;7.95;82.64
79048;BME280;68680;50.764;6.120;2024-03-02T08:07:04;97987.97;;;8.06;81.36
79048;BME280;68680;50.764;6.120;2024-03-02T08:09:30;97996.25;;;7.93;81.72
79048;BME280;68680;50.764;6.120;2024-03-02T08:11:56;97997.16;;;7.99;81.28
79048;BME280;68680;50.764;6.120;2024-03-02T08:14:22;98000.28;;;8.12;80.98
79048;BME280;68680;50.764;6.120;2024-03-02T08:16:47;97998.81;;;8.05;80.77
79048;BME280;68680;50.764;6.120;2024-03-02T08:19:13;98002.63;;;7.92;80.55
79048;BME280;68680;50.764;6.120;2024-03-02T08:21:40;98009.22;;;7.90;79.63
79048;BME280;68680;50.764;6.120;2024-03-02T08:24:07;98010.03;;;7.90;79.23
79048;BME280;68680;50.764;6.120;2024-03-02T08:26:33;97999.34;;;7.85;78.88
79048;BME280;68680;50.764;6.120;2024-03-02T08:28:59;98006.25;;;8.03;78.24
79048;BME280;68680;50.764;6.120;2024-03-02T08:31:24;97994.03;;;8.02;78.20
79048;BME280;68680;50.764;6.120;2024-03-02T08:33:50;97991.56;;;8.17;77.53
79048;BME280;68680;50.764;6.120;2024-03-02T08:36:16;97988.13;;;8.00;77.48
79048;BME280;68680;50.764;6.120;2024-03-02T08:38:43;97992.53;;;8.11;78.28
79048;BME280;68680;50.764;6.120;2024-03-02T08:41:09;97994.03;;;7.85;78.20
79048;BME280;68680;50.764;6.120;2024-03-02T08:43:35;97994.34;;;7.89;77.69
79048;BME280;68680;50.764;6.120;2024-03-02T08:46:00;97984.69;;;7.99;76.97
79048;BME280;68680;50.764;6.120;2024-03-02T08:48:26;97990.16;;;7.93;76.74
79048;BME280;68680;50.764;6.120;2024-03-02T08:50:52;97992.06;;;8.14;76.33
79048;BME280;68680;50.764;6.120;2024-03-02T08:53:18;97987.06;;;8.17;76.72
79048;BME280;68680;50.764;6.120;2024-03-02T08:55:45;97978.78;;;8.31;75.71
79048;BME280;68680;50.764;6.120;2024-03-02T08:58:11;97988.09;;;8.33;75.16
79048;BME280;68680;50.764;6.120;2024-03-02T09:00:37;97981.22;;;8.32;74.25
79048;BME280;68680;50.764;6.120;2024-03-02T09:03:04;97983.31;;;8.52;75.20
79048;BME280;68680;50.764;6.120;2024-03-02T09:05:29;97984.81;;;8.64;73.87
79048;BME280;68680;50.764;6.120;2024-03-02T09:07:55;97990.19;;;8.70;74.04
79048;BME280;68680;50.764;6.120;2024-03-02T09:10:21;97990.81;;;8.77;74.36
79048;BME280;68680;50.764;6.120;2024-03-02T09:12:48;97984.56;;;8.88;72.96
79048;BME280;68680;50.764;6.120;2024-03-02T09:15:14;97978.75;;;8.91;74.25
79048;BME280;68680;50.764;6.120;2024-03-02T09:17:40;97985.69;;;8.97;72.44
79048;BME280;68680;50.764;6.120;2024-03-02T09:20:07;97983.72;;;9.09;72.44
79048;BME280;68680;50.764;6.120;2024-03-02T09:22:33;97985.41;;;9.20;72.51
79048;BME280;68680;50.764;6.120;2024-03-02T09:24:59;97993.53;;;9.08;71.32
79048;BME280;68680;50.764;6.120;2024-03-02T09:27:24;97992.19;;;9.06;71.02
79048;BME280;68680;50.764;6.120;2024-03-02T09:29:51;97992.81;;;9.13;71.89
79048;BME280;68680;50.764;6.120;2024-03-02T09:32:17;97989.50;;;9.28;71.47
79048;BME280;68680;50.764;6.120;2024-03-02T09:34:43;97988.84;;;9.16;71.31
79048;BME280;68680;50.764;6.120;2024-03-02T09:37:09;97989.22;;;9.24;69.01
79048;BME280;68680;50.764;6.120;2024-03-02T09:39:35;97992.00;;;9.39;70.28
79048;BME280;68680;50.764;6.120;2024-03-02T09:42:00;97984.09;;;9.49;71.09
79048;BME280;68680;50.764;6.120;2024-03-02T09:44:26;97983.09;;;9.56;69.62
79048;BME280;68680;50.764;6.120;2024-03-02T09:46:54;97972.56;;;9.39;68.35
79048;BME280;68680;50.764;6.120;2024-03-02T09:49:19;97986.91;;;9.65;70.59
79048;BME280;68680;50.764;6.120;2024-03-02T09:51:48;97982.44;;;9.70;68.56
79048;BME280;68680;50.764;6.120;2024-03-02T09:54:16;97968.59;;;9.73;68.21
79048;BME280;68680;50.764;6.120;2024-03-02T09:56:42;97974.94;;;9.67;66.24
79048;BME280;68680;50.764;6.120;2024-03-02T09:59:07;97969.06;;;9.60;67.68
79048;BME280;68680;50.764;6.120;2024-03-02T10:01:33;97958.72;;;9.69;68.29
79048;BME280;68680;50.764;6.120;2024-03-02T10:04:01;97971.22;;;9.68;67.55
79048;BME280;68680;50.764;6.120;2024-03-02T10:06:29;97961.25;;;9.85;68.00
79048;BME280;68680;50.764;6.120;2024-03-02T10:08:56;97967.94;;;9.88;66.89
79048;BME280;68680;50.764;6.120;2024-03-02T10:11:29;97966.13;;;9.99;67.42
79048;BME280;68680;50.764;6.120;2024-03-02T10:14:05;97960.59;;;10.05;67.83
79048;BME280;68680;50.764;6.120;2024-03-02T10:16:31;97960.56;;;10.00;65.37
79048;BME280;68680;50.764;6.120;2024-03-02T10:18:56;97950.50;;;10.12;66.65
79048;BME280;68680;50.764;6.120;2024-03-02T10:21:24;97949.69;;;10.07;65.33
79048;BME280;68680;50.764;6.120;2024-03-02T10:23:49;97945.25;;;10.17;65.79
79048;BME280;68680;50.764;6.120;2024-03-02T10:26:17;97944.59;;;10.05;65.07
79048;BME280;68680;50.764;6.120;2024-03-02T10:28:46;97943.66;;;10.21;65.82
79048;BME280;68680;50.764;6.120;2024-03-02T10:31:13;97956.47;;;10.24;64.68
79048;BME280;68680;50.764;6.120;2024-03-02T10:33:39;97954.72;;;10.45;64.80
79048;BME280;68680;50.764;6.120;2024-03-02T10:36:05;97947.97;;;10.33;64.44
79048;BME280;68680;50.764;6.120;2024-03-02T10:38:34;97948.88;;;10.48;64.47
79048;BME280;68680;50.764;6.120;2024-03-02T10:41:00;97939.94;;;10.22;64.41
79048;BME280;68680;50.764;6.120;2024-03-02T10:43:27;97955.03;;;10.54;64.78
79048;BME280;68680;50.764;6.120;2024-03-02T10:45:54;97943.06;;;10.66;63.08
79048;BME280;68680;50.764;6.120;2024-03-02T10:48:20;97948.31;;;10.41;62.68
79048;BME280;68680;50.764;6.120;2024-03-02T10:50:46;97942.72;;;10.01;63.55
79048;BME280;68680;50.764;6.120;2024-03-02T10:53:12;97954.91;;;10.34;64.11
79048;BME280;68680;50.764;6.120;2024-03-02T10:55:39;97953.41;;;10.48;64.27
79048;BME280;68680;50.764;6.120;2024-03-02T10:58:06;97952.25;;;10.34;64.28
79048;BME280;68680;50.764;6.120;2024-03-02T11:00:37;97949.94;;;10.47;63.29
79048;BME280;68680;50.764;6.120;2024-03-02T11:03:06;97946.59;;;10.82;62.96
79048;BME280;68680;50.764;6.120;2024-03-02T11:05:36;97952.19;;;10.81;61.02
79048;BME280;68680;50.764;6.120;2024-03-02T11:08:08;97949.84;;;10.94;60.17
79048;BME280;68680;50.764;6.120;2024-03-02T11:10:50;97945.81;;;10.97;59.92
79048;BME280;68680;50.764;6.120;2024-03-02T11:13:19;97948.78;;;11.05;60.83
79048;BME280;68680;50.764;6.120;2024-03-02T11:15:48;97947.75;;;11.11;61.51
79048;BME280;68680;50.764;6.120;2024-03-02T11:18:15;97939.75;;;11.17;59.29
79048;BME280;68680;50.764;6.120;2024-03-02T11:20:42;97934.97;;;11.34;58.66
79048;BME280;68680;50.764;6.120;2024-03-02T11:23:09;97929.63;;;11.44;58.80
79048;BME280;68680;50.764;6.120;2024-03-02T11:25:36;97934.44;;;11.62;58.85
79048;BME280;68680;50.764;6.120;2024-03-02T11:28:07;97926.72;;;11.76;61.29
79048;BME280;68680;50.764;6.120;2024-03-02T11:30:51;97921.06;;;11.37;59.70
79048;BME280;68680;50.764;6.120;2024-03-02T11:33:24;97924.81;;;11.51;58.89
79048;BME280;68680;50.764;6.120;2024-03-02T11:35:50;97919.50;;;11.76;57.87
79048;BME280;68680;50.764;6.120;2024-03-02T11:38:17;97928.56;;;11.70;58.51
79048;BME280;68680;50.764;6.120;2024-03-02T11:40:43;97907.69;;;12.03;56.98
79048;BME280;68680;50.764;6.120;2024-03-02T11:43:11;97892.06;;;12.45;57.72
79048;BME280;68680;50.764;6.120;2024-03-02T11:45:37;97892.34;;;12.44;58.38
79048;BME280;68680;50.764;6.120;2024-03-02T11:48:08;97890.91;;;12.61;58.17
79048;BME280;68680;50.764;6.120;2024-03-02T11:50:35;97892.56;;;12.47;57.41
79048;BME280;68680;50.764;6.120;2024-03-02T11:53:03;97886.59;;;12.11;56.86
79048;BME280;68680;50.764;6.120;2024-03-02T11:55:30;97887.72;;;11.70;59.23
79048;BME280;68680;50.764;6.120;2024-03-02T11:57:58;97877.53;;;11.92;59.47
79048;BME280;68680;50.764;6.120;2024-03-02T12:00:26;97876.06;;;12.30;57.99
79048;BME280;68680;50.764;6.120;2024-03-02T12:03:02;97871.38;;;12.66;58.43
79048;BME280;68680;50.764;6.120;2024-03-02T12:05:30;97857.97;;;12.71;57.38
79048;BME280;68680;50.764;6.120;2024-03-02T12:07:57;97860.94;;;12.69;57.08
79048;BME280;68680;50.764;6.120;2024-03-02T12:10:23;97865.22;;;13.09;57.54
79048;BME280;68680;50.764;6.120;2024-03-02T12:12:56;97858.94;;;13.29;57.49
79048;BME280;68680;50.764;6.120;2024-03-02T12:15:25;97864.59;;;13.28;58.05
79048;BME280;68680;50.764;6.120;2024-03-02T12:17:54;97850.78;;;13.44;57.57
79048;BME280;68680;50.764;6.120;2024-03-02T12:20:20;97853.53;;;13.63;56.38
79048;BME280;68680;50.764;6.120;2024-03-02T12:22:46;97850.59;;;13.65;56.12
79048;BME280;68680;50.764;6.120;2024-03-02T12:25:12;97843.41;;;13.60;56.44
79048;BME280;68680;50.764;6.120;2024-03-02T12:27:39;97857.75;;;13.40;56.91
79048;BME280;68680;50.764;6.120;2024-03-02T12:30:06;97843.63;;;13.64;57.50
79048;BME280;68680;50.764;6.120;2024-03-02T12:32:34;97845.84;;;13.28;55.02
79048;BME280;68680;50.764;6.120;2024-03-02T12:35:00;97843.69;;;13.58;55.55
79048;BME280;68680;50.764;6.120;2024-03-02T12:37:25;97843.81;;;13.43;56.57
79048;BME280;68680;50.764;6.120;2024-03-02T12:39:52;97848.06;;;13.49;58.14
79048;BME280;68680;50.764;6.120;2024-03-02T12:42:18;97846.16;;;13.21;56.73
79048;BME280;68680;50.764;6.120;2024-03-02T12:44:44;97849.72;;;13.40;57.49
79048;BME280;68680;50.764;6.120;2024-03-02T12:47:10;97847.34;;;13.68;58.11
79048;BME280;68680;50.764;6.120;2024-03-02T12:49:39;97856.47;;;13.67;57.22
79048;BME280;68680;50.764;6.120;2024-03-02T12:52:05;97846.31;;;13.64;56.00
79048;BME280;68680;50.764;6.120;2024-03-02T12:54:33;97843.56;;;13.45;57.76
79048;BME280;68680;50.764;6.120;2024-03-02T12:56:59;97850.34;;;13.61;57.96
79048;BME280;68680;50.764;6.120;2024-03-02T12:59:25;97836.47;;;13.83;57.81
79048;BME280;68680;50.764;6.120;2024-03-02T13:01:51;97835.16;;;14.04;58.28
79048;BME280;68680;50.764;6.120;2024-03-02T13:04:21;97838.59;;;13.86;57.54